sensor_id;sensor_type;location;lat;lon;timestamp;P1;durP1;ratioP1;P2;durP2;ratioP2
11123;SDS011;5616;42.692;23.312;2023-04-25T00:01:28;3.43;;;2.90;;
11123;SDS011;5616;42.692;23.312;2023-04-25T00:03:54;3.53;;;2.90;;
11123;SDS011;5616;42.692;23.312;2023-04-25T00:06:22;4.23;;;2.97;;
11123;SDS011;5616;42.692;23.312;2023-04-25T00:08:51;3.37;;;2.87;;
11123;SDS011;5616;42.692;23.312;2023-04-25T00:11:18;4.17;;;3.17;;
11123;SDS011;5616;42.692;23.312;2023-04-25T00:13:45;3.53;;;2.93;;
11123;SDS011;5616;42.692;23.312;2023-04-25T00:16:13;3.10;;;2.57;;
11123;SDS011;5616;42.692;23.312;2023-04-25T00:18:41;4.63;;;3.30;;
11123;SDS011;5616;42.692;23.312;2023-04-25T00:21:07;3.50;;;3.20;;
11123;SDS011;5616;42.692;23.312;2023-04-25T00:23:34;3.80;;;3.40;;
11123;SDS011;5616;42.692;23.312;2023-04-25T00:26:02;4.17;;;3.40;;
11123;SDS011;5616;42.692;23.312;2023-04-25T00:28:29;3.47;;;3.17;;
11123;SDS011;5616;42.692;23.312;2023-04-25T00:30:55;3.87;;;3.57;;
11123;SDS011;5616;42.692;23.312;2023-04-25T00:33:24;3.40;;;3.20;;
11123;SDS011;5616;42.692;23.312;2023-04-25T00:35:50;3.90;;;3.50;;
11123;SDS011;5616;42.692;23.312;2023-04-25T00:38:17;4.20;;;3.80;;
11123;SDS011;5616;42.692;23.312;2023-04-25T00:40:44;4.40;;;3.63;;
11123;SDS011;5616;42.692;23.312;2023-04-25T00:43:11;4.60;;;3.63;;
11123;SDS011;5616;42.692;23.312;2023-04-25T00:45:38;4.30;;;3.90;;
11123;SDS011;5616;42.692;23.312;2023-04-25T00:48:06;4.97;;;3.77;;
11123;SDS011;5616;42.692;23.312;2023-04-25T00:50:34;4.90;;;4.20;;
11123;SDS011;5616;42.692;23.312;2023-04-25T00:53:02;6.03;;;4.23;;
11123;SDS011;5616;42.692;23.312;2023-04-25T00:55:29;5.17;;;4.10;;
11123;SDS011;5616;42.692;23.312;2023-04-25T00:57:57;5.50;;;3.93;;
11123;SDS011;5616;42.692;23.312;2023-04-25T01:00:24;4.87;;;4.47;;
11123;SDS011;5616;42.692;23.312;2023-04-25T01:02:51;5.23;;;4.73;;
11123;SDS011;5616;42.692;23.312;2023-04-25T01:05:18;6.03;;;5.13;;
11123;SDS011;5616;42.692;23.312;2023-04-25T01:07:46;6.43;;;5.30;;
11123;SDS011;5616;42.692;23.312;2023-04-25T01:10:13;6.73;;;4.73;;
11123;SDS011;5616;42.692;23.312;2023-04-25T01:12:40;5.97;;;5.37;;
11123;SDS011;5616;42.692;23.312;2023-04-25T01:15:07;5.67;;;5.07;;
11123;SDS011;5616;42.692;23.312;2023-04-25T01:17:34;5.80;;;5.20;;
11123;SDS011;5616;42.692;23.312;2023-04-25T01:20:02;5.87;;;5.23;;
11123;SDS011;5616;42.692;23.312;2023-04-25T01:22:32;5.60;;;5.00;;
11123;SDS011;5616;42.692;23.312;2023-04-25T01:24:59;6.37;;;5.50;;
11123;SDS011;5616;42.692;23.312;2023-04-25T01:27:27;5.80;;;5.30;;
11123;SDS011;5616;42.692;23.312;2023-04-25T01:29:55;5.20;;;4.57;;
11123;SDS011;5616;42.692;23.312;2023-04-25T01:32:22;5.87;;;5.37;;
11123;SDS011;5616;42.692;23.312;2023-04-25T01:34:50;5.87;;;5.30;;
11123;SDS011;5616;42.692;23.312;2023-04-25T01:37:18;5.33;;;4.77;;
11123;SDS011;5616;42.692;23.312;2023-04-25T01:39:47;4.63;;;4.23;;
11123;SDS011;5616;42.692;23.312;2023-04-25T01:42:15;4.20;;;3.90;;
11123;SDS011;5616;42.692;23.312;2023-04-25T01:44:42;5.40;;;4.90;;
11123;SDS011;5616;42.692;23.312;2023-04-25T01:47:09;4.67;;;4.27;;
11123;SDS011;5616;42.692;23.312;2023-04-25T01:49:36;5.03;;;4.53;;
11123;SDS011;5616;42.692;23.312;2023-04-25T01:52:03;5.00;;;4.50;;
11123;SDS011;5616;42.692;23.312;2023-04-25T01:54:30;5.27;;;4.77;;
11123;SDS011;5616;42.692;23.312;2023-04-25T01:56:59;5.00;;;4.60;;
11123;SDS011;5616;42.692;23.312;2023-04-25T01:59:27;5.60;;;4.47;;
11123;SDS011;5616;42.692;23.312;2023-04-25T02:02:23;4.93;;;4.17;;
11123;SDS011;5616;42.692;23.312;2023-04-25T02:04:51;4.30;;;3.90;;
11123;SDS011;5616;42.692;23.312;2023-04-25T02:07:20;4.73;;;4.33;;
11123;SDS011;5616;42.692;23.312;2023-04-25T02:09:50;4.17;;;3.77;;
11123;SDS011;5616;42.692;23.312;2023-04-25T02:12:20;4.40;;;3.60;;
11123;SDS011;5616;42.692;23.312;2023-04-25T02:15:05;4.40;;;3.70;;
11123;SDS011;5616;42.692;23.312;2023-04-25T02:17:48;3.70;;;3.40;;
11123;SDS011;5616;42.692;23.312;2023-04-25T02:20:15;3.90;;;3.50;;
11123;SDS011;5616;42.692;23.312;2023-04-25T02:22:42;3.43;;;3.13;;
11123;SDS011;5616;42.692;23.312;2023-04-25T02:25:09;4.07;;;3.67;;
11123;SDS011;5616;42.692;23.312;2023-04-25T02:27:38;4.13;;;3.60;;
11123;SDS011;5616;42.692;23.312;2023-04-25T02:30:07;4.53;;;3.87;;
11123;SDS011;5616;42.692;23.312;2023-04-25T02:32:34;4.00;;;3.53;;
11123;SDS011;5616;42.692;23.312;2023-04-25T02:35:01;4.00;;;3.70;;
11123;SDS011;5616;42.692;23.312;2023-04-25T02:37:29;4.40;;;4.00;;
11123;SDS011;5616;42.692;23.312;2023-04-25T02:39:56;4.10;;;3.70;;
11123;SDS011;5616;42.692;23.312;2023-04-25T02:42:23;4.97;;;3.80;;
11123;SDS011;5616;42.692;23.312;2023-04-25T02:44:51;4.63;;;3.63;;
11123;SDS011;5616;42.692;23.312;2023-04-25T02:47:19;4.00;;;3.53;;
11123;SDS011;5616;42.692;23.312;2023-04-25T02:49:48;5.93;;;4.00;;
11123;SDS011;5616;42.692;23.312;2023-04-25T02:52:15;4.90;;;4.50;;
11123;SDS011;5616;42.692;23.312;2023-04-25T02:54:44;5.33;;;4.00;;
11123;SDS011;5616;42.692;23.312;2023-04-25T02:57:11;4.60;;;4.20;;
11123;SDS011;5616;42.692;23.312;2023-04-25T02:59:37;4.37;;;3.97;;
11123;SDS011;5616;42.692;23.312;2023-04-25T03:02:06;4.47;;;4.03;;
11123;SDS011;5616;42.692;23.312;2023-04-25T03:04:33;4.80;;;4.30;;
11123;SDS011;5616;42.692;23.312;2023-04-25T03:06:59;4.70;;;4.10;;
11123;SDS011;5616;42.692;23.312;2023-04-25T03:09:26;4.80;;;4.27;;
11123;SDS011;5616;42.692;23.312;2023-04-25T03:11:53;5.53;;;4.10;;
11123;SDS011;5616;42.692;23.312;2023-04-25T03:14:20;4.97;;;4.57;;
11123;SDS011;5616;42.692;23.312;2023-04-25T03:16:47;5.33;;;4.83;;
11123;SDS011;5616;42.692;23.312;2023-04-25T03:19:17;5.43;;;4.70;;
11123;SDS011;5616;42.692;23.312;2023-04-25T03:21:46;5.03;;;4.53;;
11123;SDS011;5616;42.692;23.312;2023-04-25T03:24:13;5.03;;;4.53;;
11123;SDS011;5616;42.692;23.312;2023-04-25T03:26:40;5.63;;;4.77;;
11123;SDS011;5616;42.692;23.312;2023-04-25T03:29:07;4.40;;;4.00;;
11123;SDS011;5616;42.692;23.312;2023-04-25T03:31:35;5.40;;;4.73;;
11123;SDS011;5616;42.692;23.312;2023-04-25T03:34:02;4.73;;;4.27;;
11123;SDS011;5616;42.692;23.312;2023-04-25T03:36:30;5.53;;;3.93;;
11123;SDS011;5616;42.692;23.312;2023-04-25T03:38:58;5.10;;;4.60;;
11123;SDS011;5616;42.692;23.312;2023-04-25T03:41:25;4.73;;;4.30;;
11123;SDS011;5616;42.692;23.312;2023-04-25T03:43:57;4.63;;;4.03;;
11123;SDS011;5616;42.692;23.312;2023-04-25T03:46:25;4.73;;;4.23;;
11123;SDS011;5616;42.692;23.312;2023-04-25T03:48:52;6.33;;;4.93;;
11123;SDS011;5616;42.692;23.312;2023-04-25T03:51:24;5.20;;;4.67;;
11123;SDS011;5616;42.692;23.312;2023-04-25T03:53:53;4.90;;;4.40;;
11123;SDS011;5616;42.692;23.312;2023-04-25T03:56:40;7.27;;;5.60;;
11123;SDS011;5616;42.692;23.312;2023-04-25T03:59:15;6.20;;;5.60;;
11123;SDS011;5616;42.692;23.312;2023-04-25T04:01:44;6.17;;;5.57;;
11123;SDS011;5616;42.692;23.312;2023-04-25T04:04:10;5.90;;;5.30;;
11123;SDS011;5616;42.692;23.312;2023-04-25T04:06:37;5.50;;;5.00;;
11123;SDS011;5616;42.692;23.312;2023-04-25T04:09:15;5.70;;;5.20;;
11123;SDS011;5616;42.692;23.312;2023-04-25T04:11:43;8.10;;;5.13;;
11123;SDS011;5616;42.692;23.312;2023-04-25T04:14:09;5.97;;;5.30;;
11123;SDS011;5616;42.692;23.312;2023-04-25T04:16:39;5.87;;;5.33;;
11123;SDS011;5616;42.692;23.312;2023-04-25T04:19:07;6.27;;;5.50;;
11123;SDS011;5616;42.692;23.312;2023-04-25T04:21:35;5.93;;;5.33;;
11123;SDS011;5616;42.692;23.312;2023-04-25T04:24:02;6.70;;;5.97;;
11123;SDS011;5616;42.692;23.312;2023-04-25T04:26:38;8.67;;;5.60;;
11123;SDS011;5616;42.692;23.312;2023-04-25T04:29:30;8.17;;;5.73;;
11123;SDS011;5616;42.692;23.312;2023-04-25T04:32:02;7.00;;;6.30;;
11123;SDS011;5616;42.692;23.312;2023-04-25T04:34:31;6.97;;;6.27;;
11123;SDS011;5616;42.692;23.312;2023-04-25T04:36:59;5.97;;;5.37;;
11123;SDS011;5616;42.692;23.312;2023-04-25T04:39:26;6.93;;;6.23;;
11123;SDS011;5616;42.692;23.312;2023-04-25T04:42:06;6.93;;;6.30;;
11123;SDS011;5616;42.692;23.312;2023-04-25T04:44:56;7.50;;;6.17;;
11123;SDS011;5616;42.692;23.312;2023-04-25T04:47:46;9.40;;;7.10;;
11123;SDS011;5616;42.692;23.312;2023-04-25T04:50:31;7.73;;;7.00;;
11123;SDS011;5616;42.692;23.312;2023-04-25T04:53:05;9.10;;;6.40;;
11123;SDS011;5616;42.692;23.312;2023-04-25T04:55:50;8.00;;;6.87;;
11123;SDS011;5616;42.692;23.312;2023-04-25T04:58:29;7.37;;;6.60;;
11123;SDS011;5616;42.692;23.312;2023-04-25T05:01:15;8.00;;;7.20;;
11123;SDS011;5616;42.692;23.312;2023-04-25T05:04:04;7.17;;;6.47;;
11123;SDS011;5616;42.692;23.312;2023-04-25T05:06:50;9.13;;;8.07;;
11123;SDS011;5616;42.692;23.312;2023-04-25T05:09:40;7.57;;;6.87;;
11123;SDS011;5616;42.692;23.312;2023-04-25T05:12:26;9.80;;;7.40;;
11123;SDS011;5616;42.692;23.312;2023-04-25T05:15:08;8.70;;;7.73;;
11123;SDS011;5616;42.692;23.312;2023-04-25T05:18:07;10.67;;;9.07;;
11123;SDS011;5616;42.692;23.312;2023-04-25T05:20:59;11.23;;;10.13;;
11123;SDS011;5616;42.692;23.312;2023-04-25T05:23:44;11.47;;;10.27;;
11123;SDS011;5616;42.692;23.312;2023-04-25T05:26:24;11.33;;;10.23;;
11123;SDS011;5616;42.692;23.312;2023-04-25T05:29:04;13.53;;;10.30;;
11123;SDS011;5616;42.692;23.312;2023-04-25T05:31:41;12.10;;;9.87;;
11123;SDS011;5616;42.692;23.312;2023-04-25T05:34:11;10.23;;;9.13;;
11123;SDS011;5616;42.692;23.312;2023-04-25T05:36:58;11.83;;;8.50;;
11123;SDS011;5616;42.692;23.312;2023-04-25T05:39:26;12.17;;;9.67;;
11123;SDS011;5616;42.692;23.312;2023-04-25T05:42:11;14.10;;;10.60;;
11123;SDS011;5616;42.692;23.312;2023-04-25T05:44:44;14.53;;;9.63;;
11123;SDS011;5616;42.692;23.312;2023-04-25T05:47:23;8.70;;;7.53;;
11123;SDS011;5616;42.692;23.312;2023-04-25T05:49:58;7.27;;;6.50;;
11123;SDS011;5616;42.692;23.312;2023-04-25T05:52:44;9.50;;;7.33;;
11123;SDS011;5616;42.692;23.312;2023-04-25T05:55:23;8.10;;;7.10;;
11123;SDS011;5616;42.692;23.312;2023-04-25T05:57:50;9.63;;;7.50;;
11123;SDS011;5616;42.692;23.312;2023-04-25T06:00:17;8.13;;;7.30;;
11123;SDS011;5616;42.692;23.312;2023-04-25T06:02:48;8.00;;;7.07;;
11123;SDS011;5616;42.692;23.312;2023-04-25T06:05:17;9.50;;;7.83;;
11123;SDS011;5616;42.692;23.312;2023-04-25T06:07:45;10.30;;;9.23;;
11123;SDS011;5616;42.692;23.312;2023-04-25T06:10:13;12.03;;;10.43;;
11123;SDS011;5616;42.692;23.312;2023-04-25T06:12:41;11.43;;;9.83;;
11123;SDS011;5616;42.692;23.312;2023-04-25T06:15:08;9.60;;;8.67;;
11123;SDS011;5616;42.692;23.312;2023-04-25T06:17:35;7.97;;;7.17;;
11123;SDS011;5616;42.692;23.312;2023-04-25T06:20:04;11.27;;;7.90;;
11123;SDS011;5616;42.692;23.312;2023-04-25T06:22:33;11.47;;;8.60;;
11123;SDS011;5616;42.692;23.312;2023-04-25T06:25:00;11.33;;;7.73;;
11123;SDS011;5616;42.692;23.312;2023-04-25T06:27:29;8.03;;;6.47;;
11123;SDS011;5616;42.692;23.312;2023-04-25T06:29:56;7.50;;;6.73;;
11123;SDS011;5616;42.692;23.312;2023-04-25T06:32:24;7.23;;;6.17;;
11123;SDS011;5616;42.692;23.312;2023-04-25T06:34:53;7.73;;;6.20;;
11123;SDS011;5616;42.692;23.312;2023-04-25T06:37:22;8.00;;;5.70;;
11123;SDS011;5616;42.692;23.312;2023-04-25T06:39:50;8.83;;;6.10;;
11123;SDS011;5616;42.692;23.312;2023-04-25T06:42:17;7.93;;;6.37;;
11123;SDS011;5616;42.692;23.312;2023-04-25T06:44:57;8.07;;;6.17;;
11123;SDS011;5616;42.692;23.312;2023-04-25T06:47:23;4.90;;;4.40;;
11123;SDS011;5616;42.692;23.312;2023-04-25T06:49:50;4.17;;;3.80;;
11123;SDS011;5616;42.692;23.312;2023-04-25T06:52:18;5.13;;;3.93;;
11123;SDS011;5616;42.692;23.312;2023-04-25T06:54:47;4.77;;;4.33;;
11123;SDS011;5616;42.692;23.312;2023-04-25T06:57:27;5.80;;;5.10;;
11123;SDS011;5616;42.692;23.312;2023-04-25T06:59:59;5.97;;;5.07;;
11123;SDS011;5616;42.692;23.312;2023-04-25T07:02:25;5.97;;;5.37;;
11123;SDS011;5616;42.692;23.312;2023-04-25T07:04:53;6.27;;;5.67;;
11123;SDS011;5616;42.692;23.312;2023-04-25T07:07:21;7.17;;;4.77;;
11123;SDS011;5616;42.692;23.312;2023-04-25T07:09:55;8.10;;;4.93;;
11123;SDS011;5616;42.692;23.312;2023-04-25T07:12:22;8.40;;;5.83;;
11123;SDS011;5616;42.692;23.312;2023-04-25T07:14:49;7.37;;;6.20;;
11123;SDS011;5616;42.692;23.312;2023-04-25T07:17:16;8.53;;;6.60;;
11123;SDS011;5616;42.692;23.312;2023-04-25T07:19:42;11.43;;;7.70;;
11123;SDS011;5616;42.692;23.312;2023-04-25T07:22:09;14.07;;;7.47;;
11123;SDS011;5616;42.692;23.312;2023-04-25T07:24:39;12.17;;;8.97;;
11123;SDS011;5616;42.692;23.312;2023-04-25T07:27:09;14.00;;;8.40;;
11123;SDS011;5616;42.692;23.312;2023-04-25T07:29:53;18.87;;;11.73;;
11123;SDS011;5616;42.692;23.312;2023-04-25T07:32:21;17.63;;;8.90;;
11123;SDS011;5616;42.692;23.312;2023-04-25T07:34:48;8.20;;;6.17;;
11123;SDS011;5616;42.692;23.312;2023-04-25T07:37:16;16.23;;;9.33;;
11123;SDS011;5616;42.692;23.312;2023-04-25T07:39:57;37.80;;;19.50;;
11123;SDS011;5616;42.692;23.312;2023-04-25T07:42:25;24.60;;;14.17;;
11123;SDS011;5616;42.692;23.312;2023-04-25T07:44:52;15.97;;;10.50;;
11123;SDS011;5616;42.692;23.312;2023-04-25T07:47:18;12.20;;;9.17;;
11123;SDS011;5616;42.692;23.312;2023-04-25T07:49:45;14.10;;;8.00;;
11123;SDS011;5616;42.692;23.312;2023-04-25T07:52:13;9.73;;;7.30;;
11123;SDS011;5616;42.692;23.312;2023-04-25T07:54:46;10.10;;;7.23;;
11123;SDS011;5616;42.692;23.312;2023-04-25T07:57:17;8.30;;;6.77;;
11123;SDS011;5616;42.692;23.312;2023-04-25T07:59:48;8.93;;;6.40;;
11123;SDS011;5616;42.692;23.312;2023-04-25T08:02:15;8.67;;;6.80;;
11123;SDS011;5616;42.692;23.312;2023-04-25T08:04:42;7.80;;;6.90;;
11123;SDS011;5616;42.692;23.312;2023-04-25T08:07:11;10.30;;;7.00;;
11123;SDS011;5616;42.692;23.312;2023-04-25T08:09:47;13.67;;;9.13;;
11123;SDS011;5616;42.692;23.312;2023-04-25T08:12:21;9.47;;;7.63;;
11123;SDS011;5616;42.692;23.312;2023-04-25T08:14:50;11.83;;;6.87;;
11123;SDS011;5616;42.692;23.312;2023-04-25T08:17:17;6.83;;;5.27;;
11123;SDS011;5616;42.692;23.312;2023-04-25T08:19:44;8.07;;;5.97;;
11123;SDS011;5616;42.692;23.312;2023-04-25T08:22:20;6.20;;;4.80;;
11123;SDS011;5616;42.692;23.312;2023-04-25T08:24:52;8.63;;;5.97;;
11123;SDS011;5616;42.692;23.312;2023-04-25T08:27:20;5.17;;;4.67;;
11123;SDS011;5616;42.692;23.312;2023-04-25T08:29:47;6.60;;;4.27;;
11123;SDS011;5616;42.692;23.312;2023-04-25T08:32:16;9.53;;;4.50;;
11123;SDS011;5616;42.692;23.312;2023-04-25T08:34:55;8.47;;;4.80;;
11123;SDS011;5616;42.692;23.312;2023-04-25T08:37:22;7.00;;;4.83;;
11123;SDS011;5616;42.692;23.312;2023-04-25T08:39:55;6.67;;;5.47;;
11123;SDS011;5616;42.692;23.312;2023-04-25T08:42:52;8.27;;;5.17;;
11123;SDS011;5616;42.692;23.312;2023-04-25T08:45:20;6.30;;;5.13;;
11123;SDS011;5616;42.692;23.312;2023-04-25T08:47:50;8.43;;;6.00;;
11123;SDS011;5616;42.692;23.312;2023-04-25T08:50:19;4.93;;;3.63;;
11123;SDS011;5616;42.692;23.312;2023-04-25T08:52:50;6.27;;;4.70;;
11123;SDS011;5616;42.692;23.312;2023-04-25T08:55:20;6.83;;;4.50;;
11123;SDS011;5616;42.692;23.312;2023-04-25T08:57:52;7.47;;;4.70;;
11123;SDS011;5616;42.692;23.312;2023-04-25T09:00:21;6.33;;;4.73;;
11123;SDS011;5616;42.692;23.312;2023-04-25T09:02:48;6.10;;;3.70;;
11123;SDS011;5616;42.692;23.312;2023-04-25T09:05:17;15.33;;;8.60;;
11123;SDS011;5616;42.692;23.312;2023-04-25T09:07:44;9.33;;;4.90;;
11123;SDS011;5616;42.692;23.312;2023-04-25T09:10:11;5.70;;;4.00;;
11123;SDS011;5616;42.692;23.312;2023-04-25T09:12:38;66.03;;;27.53;;
11123;SDS011;5616;42.692;23.312;2023-04-25T09:15:08;15.27;;;7.87;;
11123;SDS011;5616;42.692;23.312;2023-04-25T09:17:45;6.90;;;4.43;;
11123;SDS011;5616;42.692;23.312;2023-04-25T09:20:13;8.23;;;5.10;;
11123;SDS011;5616;42.692;23.312;2023-04-25T09:22:42;10.63;;;6.30;;
11123;SDS011;5616;42.692;23.312;2023-04-25T09:25:13;10.27;;;6.97;;
11123;SDS011;5616;42.692;23.312;2023-04-25T09:27:53;16.43;;;9.60;;
11123;SDS011;5616;42.692;23.312;2023-04-25T09:30:31;10.83;;;6.57;;
11123;SDS011;5616;42.692;23.312;2023-04-25T09:33:30;5.63;;;4.50;;
11123;SDS011;5616;42.692;23.312;2023-04-25T09:36:01;6.30;;;4.50;;
11123;SDS011;5616;42.692;23.312;2023-04-25T09:38:59;9.17;;;5.63;;
11123;SDS011;5616;42.692;23.312;2023-04-25T09:41:31;7.90;;;4.70;;
11123;SDS011;5616;42.692;23.312;2023-04-25T09:44:00;9.70;;;5.83;;
11123;SDS011;5616;42.692;23.312;2023-04-25T09:46:34;8.03;;;4.77;;
11123;SDS011;5616;42.692;23.312;2023-04-25T09:49:06;3.90;;;2.77;;
11123;SDS011;5616;42.692;23.312;2023-04-25T09:51:53;1.77;;;1.23;;
11123;SDS011;5616;42.692;23.312;2023-04-25T09:54:24;2.60;;;1.90;;
11123;SDS011;5616;42.692;23.312;2023-04-25T09:57:01;4.43;;;2.70;;
11123;SDS011;5616;42.692;23.312;2023-04-25T09:59:36;5.13;;;3.13;;
11123;SDS011;5616;42.692;23.312;2023-04-25T10:02:06;4.40;;;3.53;;
11123;SDS011;5616;42.692;23.312;2023-04-25T10:04:37;5.00;;;3.50;;
11123;SDS011;5616;42.692;23.312;2023-04-25T10:07:11;3.27;;;2.97;;
11123;SDS011;5616;42.692;23.312;2023-04-25T10:09:44;3.80;;;3.10;;
11123;SDS011;5616;42.692;23.312;2023-04-25T10:12:14;6.93;;;2.73;;
11123;SDS011;5616;42.692;23.312;2023-04-25T10:14:43;5.73;;;3.10;;
11123;SDS011;5616;42.692;23.312;2023-04-25T10:17:10;3.33;;;2.80;;
11123;SDS011;5616;42.692;23.312;2023-04-25T10:19:37;4.77;;;2.80;;
11123;SDS011;5616;42.692;23.312;2023-04-25T10:22:07;4.40;;;2.80;;
11123;SDS011;5616;42.692;23.312;2023-04-25T10:24:38;2.93;;;1.57;;
11123;SDS011;5616;42.692;23.312;2023-04-25T10:27:07;3.83;;;1.90;;
11123;SDS011;5616;42.692;23.312;2023-04-25T10:29:35;1.30;;;1.20;;
11123;SDS011;5616;42.692;23.312;2023-04-25T10:32:01;1.63;;;1.17;;
11123;SDS011;5616;42.692;23.312;2023-04-25T10:34:39;2.47;;;1.30;;
11123;SDS011;5616;42.692;23.312;2023-04-25T10:37:08;1.27;;;1.17;;
11123;SDS011;5616;42.692;23.312;2023-04-25T10:39:35;3.70;;;1.77;;
11123;SDS011;5616;42.692;23.312;2023-04-25T10:42:05;4.43;;;1.90;;
11123;SDS011;5616;42.692;23.312;2023-04-25T10:44:34;5.53;;;2.17;;
11123;SDS011;5616;42.692;23.312;2023-04-25T10:47:03;2.57;;;1.40;;
11123;SDS011;5616;42.692;23.312;2023-04-25T10:49:33;2.10;;;1.30;;
11123;SDS011;5616;42.692;23.312;2023-04-25T10:52:16;3.20;;;1.27;;
11123;SDS011;5616;42.692;23.312;2023-04-25T10:54:48;3.73;;;1.83;;
11123;SDS011;5616;42.692;23.312;2023-04-25T10:57:27;3.60;;;2.17;;
11123;SDS011;5616;42.692;23.312;2023-04-25T11:00:07;3.77;;;1.87;;
11123;SDS011;5616;42.692;23.312;2023-04-25T11:02:42;4.83;;;1.70;;
11123;SDS011;5616;42.692;23.312;2023-04-25T11:05:19;2.47;;;1.23;;
11123;SDS011;5616;42.692;23.312;2023-04-25T11:07:52;1.77;;;1.13;;
11123;SDS011;5616;42.692;23.312;2023-04-25T11:10:23;1.77;;;1.30;;
11123;SDS011;5616;42.692;23.312;2023-04-25T11:12:51;1.57;;;1.20;;
11123;SDS011;5616;42.692;23.312;2023-04-25T11:15:20;1.70;;;1.20;;
11123;SDS011;5616;42.692;23.312;2023-04-25T11:17:47;1.40;;;0.97;;
11123;SDS011;5616;42.692;23.312;2023-04-25T11:20:14;1.93;;;1.33;;
11123;SDS011;5616;42.692;23.312;2023-04-25T11:22:41;1.80;;;1.17;;
11123;SDS011;5616;42.692;23.312;2023-04-25T11:25:09;1.87;;;1.20;;
11123;SDS011;5616;42.692;23.312;2023-04-25T11:27:37;3.63;;;1.20;;
11123;SDS011;5616;42.692;23.312;2023-04-25T11:30:12;2.53;;;1.70;;
11123;SDS011;5616;42.692;23.312;2023-04-25T11:32:42;3.17;;;1.47;;
11123;SDS011;5616;42.692;23.312;2023-04-25T11:35:09;3.00;;;1.30;;
11123;SDS011;5616;42.692;23.312;2023-04-25T11:37:36;1.57;;;1.27;;
11123;SDS011;5616;42.692;23.312;2023-04-25T11:40:06;1.67;;;1.40;;
11123;SDS011;5616;42.692;23.312;2023-04-25T11:42:36;2.90;;;1.57;;
11123;SDS011;5616;42.692;23.312;2023-04-25T11:45:03;1.87;;;1.20;;
11123;SDS011;5616;42.692;23.312;2023-04-25T11:47:31;2.03;;;0.90;;
11123;SDS011;5616;42.692;23.312;2023-04-25T11:50:00;1.03;;;1.00;;
11123;SDS011;5616;42.692;23.312;2023-04-25T11:55:13;3.03;;;1.30;;
11123;SDS011;5616;42.692;23.312;2023-04-25T11:57:41;1.30;;;1.07;;
11123;SDS011;5616;42.692;23.312;2023-04-25T12:00:10;3.73;;;1.40;;
11123;SDS011;5616;42.692;23.312;2023-04-25T12:02:42;1.00;;;0.90;;
11123;SDS011;5616;42.692;23.312;2023-04-25T12:05:11;2.40;;;1.07;;
11123;SDS011;5616;42.692;23.312;2023-04-25T12:07:39;2.40;;;0.93;;
11123;SDS011;5616;42.692;23.312;2023-04-25T12:10:06;1.50;;;1.00;;
11123;SDS011;5616;42.692;23.312;2023-04-25T12:12:35;1.33;;;1.05;;
11123;SDS011;5616;42.692;23.312;2023-04-25T12:15:09;1.30;;;1.20;;
11123;SDS011;5616;42.692;23.312;2023-04-25T12:17:38;1.10;;;0.90;;
11123;SDS011;5616;42.692;23.312;2023-04-25T12:20:08;2.00;;;1.10;;
11123;SDS011;5616;42.692;23.312;2023-04-25T12:22:40;2.77;;;1.20;;
11123;SDS011;5616;42.692;23.312;2023-04-25T12:25:09;1.10;;;1.00;;
11123;SDS011;5616;42.692;23.312;2023-04-25T12:27:37;1.87;;;1.20;;
11123;SDS011;5616;42.692;23.312;2023-04-25T12:30:05;1.70;;;1.20;;
11123;SDS011;5616;42.692;23.312;2023-04-25T12:32:33;3.50;;;1.10;;
11123;SDS011;5616;42.692;23.312;2023-04-25T12:35:00;7.07;;;2.40;;
11123;SDS011;5616;42.692;23.312;2023-04-25T12:37:29;4.67;;;1.90;;
11123;SDS011;5616;42.692;23.312;2023-04-25T12:39:56;7.17;;;2.20;;
11123;SDS011;5616;42.692;23.312;2023-04-25T12:42:23;4.07;;;1.83;;
11123;SDS011;5616;42.692;23.312;2023-04-25T12:44:50;4.43;;;1.50;;
11123;SDS011;5616;42.692;23.312;2023-04-25T12:47:17;4.70;;;1.73;;
11123;SDS011;5616;42.692;23.312;2023-04-25T12:49:44;5.37;;;1.97;;
11123;SDS011;5616;42.692;23.312;2023-04-25T12:52:10;3.50;;;1.70;;
11123;SDS011;5616;42.692;23.312;2023-04-25T12:54:38;2.83;;;1.43;;
11123;SDS011;5616;42.692;23.312;2023-04-25T12:57:05;2.23;;;1.60;;
11123;SDS011;5616;42.692;23.312;2023-04-25T12:59:32;1.40;;;1.30;;
11123;SDS011;5616;42.692;23.312;2023-04-25T13:01:59;1.90;;;1.33;;
11123;SDS011;5616;42.692;23.312;2023-04-25T13:04:26;4.37;;;1.77;;
11123;SDS011;5616;42.692;23.312;2023-04-25T13:06:53;4.23;;;1.40;;
11123;SDS011;5616;42.692;23.312;2023-04-25T13:09:20;1.80;;;1.50;;
11123;SDS011;5616;42.692;23.312;2023-04-25T13:11:48;2.87;;;1.77;;
11123;SDS011;5616;42.692;23.312;2023-04-25T13:14:15;5.03;;;1.70;;
11123;SDS011;5616;42.692;23.312;2023-04-25T13:16:42;2.27;;;1.70;;
11123;SDS011;5616;42.692;23.312;2023-04-25T13:19:08;4.17;;;2.00;;
11123;SDS011;5616;42.692;23.312;2023-04-25T13:21:36;3.03;;;2.07;;
11123;SDS011;5616;42.692;23.312;2023-04-25T13:24:03;3.00;;;2.30;;
11123;SDS011;5616;42.692;23.312;2023-04-25T13:26:30;3.80;;;2.70;;
11123;SDS011;5616;42.692;23.312;2023-04-25T13:28:59;6.00;;;2.47;;
11123;SDS011;5616;42.692;23.312;2023-04-25T13:31:28;3.23;;;2.30;;
11123;SDS011;5616;42.692;23.312;2023-04-25T13:33:55;3.63;;;1.90;;
11123;SDS011;5616;42.692;23.312;2023-04-25T13:36:22;5.00;;;2.60;;
11123;SDS011;5616;42.692;23.312;2023-04-25T13:38:49;4.77;;;2.20;;
11123;SDS011;5616;42.692;23.312;2023-04-25T13:41:15;3.20;;;2.13;;
11123;SDS011;5616;42.692;23.312;2023-04-25T13:43:44;5.33;;;2.40;;
11123;SDS011;5616;42.692;23.312;2023-04-25T13:46:13;4.47;;;2.60;;
11123;SDS011;5616;42.692;23.312;2023-04-25T13:48:41;3.97;;;2.47;;
11123;SDS011;5616;42.692;23.312;2023-04-25T13:51:14;5.97;;;2.20;;
11123;SDS011;5616;42.692;23.312;2023-04-25T13:53:42;3.57;;;2.20;;
11123;SDS011;5616;42.692;23.312;2023-04-25T13:56:09;3.37;;;2.30;;
11123;SDS011;5616;42.692;23.312;2023-04-25T13:58:37;6.27;;;2.57;;
11123;SDS011;5616;42.692;23.312;2023-04-25T14:01:04;3.07;;;2.67;;
11123;SDS011;5616;42.692;23.312;2023-04-25T14:03:32;2.57;;;2.00;;
11123;SDS011;5616;42.692;23.312;2023-04-25T14:05:59;4.13;;;2.43;;
11123;SDS011;5616;42.692;23.312;2023-04-25T14:08:26;3.37;;;2.23;;
11123;SDS011;5616;42.692;23.312;2023-04-25T14:10:53;2.50;;;2.10;;
11123;SDS011;5616;42.692;23.312;2023-04-25T14:13:20;4.13;;;1.70;;
11123;SDS011;5616;42.692;23.312;2023-04-25T14:15:48;3.20;;;1.80;;
11123;SDS011;5616;42.692;23.312;2023-04-25T14:18:16;1.90;;;1.80;;
11123;SDS011;5616;42.692;23.312;2023-04-25T14:20:44;1.83;;;1.50;;
11123;SDS011;5616;42.692;23.312;2023-04-25T14:23:11;1.20;;;1.10;;
11123;SDS011;5616;42.692;23.312;2023-04-25T14:25:39;2.00;;;1.20;;
11123;SDS011;5616;42.692;23.312;2023-04-25T14:28:07;1.53;;;1.40;;
11123;SDS011;5616;42.692;23.312;2023-04-25T14:30:33;1.43;;;1.33;;
11123;SDS011;5616;42.692;23.312;2023-04-25T14:33:00;1.40;;;1.30;;
11123;SDS011;5616;42.692;23.312;2023-04-25T14:35:27;2.63;;;1.60;;
11123;SDS011;5616;42.692;23.312;2023-04-25T14:37:55;2.53;;;1.43;;
11123;SDS011;5616;42.692;23.312;2023-04-25T14:40:22;1.83;;;1.40;;
11123;SDS011;5616;42.692;23.312;2023-04-25T14:42:49;1.63;;;1.50;;
11123;SDS011;5616;42.692;23.312;2023-04-25T14:45:17;2.00;;;1.40;;
11123;SDS011;5616;42.692;23.312;2023-04-25T14:47:43;2.80;;;1.40;;
11123;SDS011;5616;42.692;23.312;2023-04-25T14:50:10;1.40;;;1.30;;
11123;SDS011;5616;42.692;23.312;2023-04-25T14:52:37;1.53;;;1.40;;
11123;SDS011;5616;42.692;23.312;2023-04-25T14:55:07;5.70;;;1.47;;
11123;SDS011;5616;42.692;23.312;2023-04-25T14:57:34;2.17;;;1.57;;
11123;SDS011;5616;42.692;23.312;2023-04-25T15:00:02;2.13;;;1.67;;
11123;SDS011;5616;42.692;23.312;2023-04-25T15:02:32;1.90;;;1.70;;
11123;SDS011;5616;42.692;23.312;2023-04-25T15:04:59;2.00;;;1.90;;
11123;SDS011;5616;42.692;23.312;2023-04-25T15:07:26;2.43;;;2.17;;